createdAt,value
2023-02-07T00:01:17.404Z,104344.69
2023-02-07T00:03:44.865Z,104342.88
2023-02-07T00:06:17.070Z,104343.56
2023-02-07T00:08:45.283Z,104345.13
2023-02-07T00:11:20.356Z,104341.50
2023-02-07T00:13:50.344Z,104338.94
2023-02-07T00:16:17.270Z,104332.06
2023-02-07T00:18:45.327Z,104337.38
2023-02-07T00:21:15.445Z,104339.00
2023-02-07T00:23:43.598Z,104343.41
2023-02-07T00:26:11.383Z,104334.47
2023-02-07T00:28:38.828Z,104326.56
2023-02-07T00:31:14.938Z,104335.34
2023-02-07T00:33:43.686Z,104339.44
2023-02-07T00:36:12.301Z,104338.50
2023-02-07T00:38:39.752Z,104311.81
2023-02-07T00:41:07.432Z,104301.19
2023-02-07T00:43:34.818Z,104328.81
2023-02-07T00:46:04.061Z,104329.47
2023-02-07T00:48:33.471Z,104317.19
2023-02-07T00:51:00.730Z,104304.72
2023-02-07T00:53:28.954Z,104335.69
2023-02-07T00:55:56.148Z,104329.59
2023-02-07T00:58:23.173Z,104325.22
2023-02-07T01:00:50.794Z,104328.81
2023-02-07T01:03:18.282Z,104330.28
2023-02-07T01:05:44.979Z,104332.81
2023-02-07T01:08:11.941Z,104343.25
2023-02-07T01:10:43.705Z,104325.41
2023-02-07T01:13:12.007Z,104338.91
2023-02-07T01:15:40.736Z,104323.81
2023-02-07T01:18:09.095Z,104324.78
2023-02-07T01:20:38.587Z,104334.59
2023-02-07T01:23:06.160Z,104333.03
2023-02-07T01:25:32.838Z,104329.28
2023-02-07T01:27:59.617Z,104342.56
2023-02-07T01:30:27.385Z,104346.13
2023-02-07T01:32:54.031Z,104352.91
2023-02-07T01:35:21.214Z,104325.41
2023-02-07T01:37:48.095Z,104347.72
2023-02-07T01:40:15.199Z,104321.03
2023-02-07T01:42:42.599Z,104339.69
2023-02-07T01:45:22.628Z,104337.97
2023-02-07T01:47:53.087Z,104337.19
2023-02-07T01:50:20.570Z,104327.44
2023-02-07T01:52:48.992Z,104323.03
2023-02-07T01:55:22.727Z,104334.69
2023-02-07T01:57:51.098Z,104336.69
2023-02-07T02:00:18.601Z,104321.03
2023-02-07T02:02:47.253Z,104328.16
2023-02-07T02:05:14.971Z,104332.06
2023-02-07T02:07:42.287Z,104321.53
2023-02-07T02:10:20.855Z,104324.38
2023-02-07T02:13:03.785Z,104333.88
2023-02-07T02:15:48.507Z,104341.78
2023-02-07T02:18:49.624Z,104334.91
2023-02-07T02:21:41.792Z,104345.28
2023-02-07T02:24:32.957Z,104333.97
2023-02-07T02:27:37.356Z,104333.03
2023-02-07T02:30:33.014Z,104326.00
2023-02-07T02:33:06.275Z,104337.13
2023-02-07T02:36:08.328Z,104335.34
2023-02-07T02:39:05.448Z,104323.94
2023-02-07T02:41:47.056Z,104322.16
2023-02-07T02:44:30.918Z,104321.91
2023-02-07T02:46:59.385Z,104338.50
2023-02-07T02:49:26.815Z,104319.69
2023-02-07T02:51:54.565Z,104343.59
2023-02-07T02:54:33.444Z,104342.56
2023-02-07T02:57:35.722Z,104345.84
2023-02-07T03:00:22.633Z,104351.84
2023-02-07T03:02:59.701Z,104340.50
2023-02-07T03:06:04.541Z,104345.66
2023-02-07T03:08:54.297Z,104347.38
2023-02-07T03:11:24.494Z,104350.81
2023-02-07T03:14:23.907Z,104340.06
2023-02-07T03:17:21.582Z,104335.69
2023-02-07T03:19:52.931Z,104322.72
2023-02-07T03:22:23.202Z,104317.38
2023-02-07T03:24:54.346Z,104327.03
2023-02-07T03:27:23.170Z,104325.31
2023-02-07T03:29:52.589Z,104326.03
2023-02-07T03:32:20.559Z,104322.50
2023-02-07T03:34:59.587Z,104313.63
2023-02-07T03:37:36.697Z,104306.66
2023-02-07T03:40:05.514Z,104317.19
2023-02-07T03:42:46.446Z,104319.72
2023-02-07T03:45:16.989Z,104321.63
2023-02-07T03:47:43.860Z,104307.69
2023-02-07T03:50:11.304Z,104308.47
2023-02-07T03:52:37.912Z,104312.97
2023-02-07T03:55:05.558Z,104319.38
2023-02-07T03:57:32.755Z,104320.25
2023-02-07T03:59:59.833Z,104315.88
2023-02-07T04:02:26.948Z,104307.13
2023-02-07T04:04:53.931Z,104318.50
2023-02-07T04:07:20.583Z,104309.72
2023-02-07T04:09:47.232Z,104301.75
2023-02-07T04:12:13.831Z,104319.31
2023-02-07T04:14:41.641Z,104310.88
2023-02-07T04:17:08.470Z,104307.34
2023-02-07T04:19:36.082Z,104313.38
2023-02-07T04:22:02.725Z,104309.00
2023-02-07T04:24:32.121Z,104295.75
2023-02-07T04:27:00.500Z,104281.34
2023-02-07T04:29:28.258Z,104294.34
2023-02-07T04:31:55.633Z,104312.91
2023-02-07T04:34:23.849Z,104313.75
2023-02-07T04:36:53.694Z,104294.47
2023-02-07T04:39:21.082Z,104309.31
2023-02-07T04:41:48.110Z,104310.97
2023-02-07T04:44:16.332Z,104289.53
2023-02-07T04:46:44.187Z,104298.34
2023-02-07T04:49:12.332Z,104267.09
2023-02-07T04:51:38.969Z,104278.63
2023-02-07T04:54:05.687Z,104312.47
2023-02-07T04:56:32.372Z,104247.94
2023-02-07T04:58:59.467Z,104275.13
2023-02-07T05:01:27.532Z,104307.22
2023-02-07T05:03:55.487Z,104303.88
2023-02-07T05:06:23.091Z,104299.25
2023-02-07T05:08:50.042Z,104313.47
2023-02-07T05:11:18.786Z,104311.75
2023-02-07T05:13:45.600Z,104303.94
2023-02-07T05:16:12.213Z,104300.34
2023-02-07T05:18:39.425Z,104294.03
2023-02-07T05:21:06.307Z,104304.84
2023-02-07T05:23:37.261Z,104297.00
2023-02-07T05:26:05.217Z,104297.63
2023-02-07T05:28:33.190Z,104311.44
2023-02-07T05:30:59.817Z,104302.44
2023-02-07T05:33:27.512Z,104310.34
2023-02-07T05:35:54.063Z,104311.13
2023-02-07T05:38:21.644Z,104316.22
2023-02-07T05:40:49.160Z,104302.22
2023-02-07T05:43:16.275Z,104310.13
2023-02-07T05:45:43.599Z,104300.59
2023-02-07T05:48:10.279Z,104301.72
2023-02-07T05:50:37.496Z,104311.19
2023-02-07T05:53:05.147Z,104304.94
2023-02-07T05:55:31.982Z,104289.91
2023-02-07T05:57:58.765Z,104312.91
2023-02-07T06:00:26.166Z,104315.47
2023-02-07T06:02:53.265Z,104319.00
2023-02-07T06:05:23.887Z,104319.78
2023-02-07T06:07:52.484Z,104323.06
2023-02-07T06:10:22.458Z,104320.63
2023-02-07T06:12:50.641Z,104317.84
2023-02-07T06:15:17.261Z,104305.59
2023-02-07T06:17:45.210Z,104308.31
2023-02-07T06:20:12.188Z,104319.88
2023-02-07T06:22:38.808Z,104310.41
2023-02-07T06:25:11.515Z,104302.28
2023-02-07T06:27:40.150Z,104289.19
2023-02-07T06:30:08.474Z,104317.22
2023-02-07T06:32:37.253Z,104313.63
2023-02-07T06:35:05.742Z,104319.84
2023-02-07T06:37:32.526Z,104307.59
2023-02-07T06:39:59.960Z,104301.06
2023-02-07T06:42:29.125Z,104317.47
2023-02-07T06:44:55.706Z,104312.47
2023-02-07T06:47:22.356Z,104315.25
2023-02-07T06:49:49.521Z,104306.31
2023-02-07T06:52:20.101Z,104325.50
2023-02-07T06:54:46.674Z,104320.94
2023-02-07T06:57:14.229Z,104333.41
2023-02-07T06:59:40.862Z,104328.09
2023-02-07T07:02:11.684Z,104325.22
2023-02-07T07:04:38.897Z,104330.41
2023-02-07T07:07:05.854Z,104341.91
2023-02-07T07:09:34.041Z,104333.84
2023-02-07T07:12:01.526Z,104313.25
2023-02-07T07:14:28.370Z,104326.44
2023-02-07T07:16:56.885Z,104337.78
2023-02-07T07:19:23.676Z,104324.47
2023-02-07T07:21:53.137Z,104324.38
2023-02-07T07:24:20.294Z,104322.91
2023-02-07T07:26:50.029Z,104341.75
2023-02-07T07:29:19.527Z,104323.03
2023-02-07T07:31:47.713Z,104341.75
2023-02-07T07:34:15.580Z,104321.25
2023-02-07T07:36:42.922Z,104317.31
2023-02-07T07:39:10.708Z,104354.59
2023-02-07T07:41:37.436Z,104358.16
2023-02-07T07:44:04.296Z,104331.59
2023-02-07T07:46:31.220Z,104349.09
2023-02-07T07:48:58.677Z,104327.91
2023-02-07T07:51:26.656Z,104366.00
2023-02-07T07:53:53.439Z,104308.44
2023-02-07T07:56:21.201Z,104338.53
2023-02-07T07:58:48.794Z,104355.38
2023-02-07T08:01:15.836Z,104355.50
2023-02-07T08:03:42.638Z,104371.94
2023-02-07T08:06:09.583Z,104369.28
2023-02-07T08:08:36.538Z,104364.97
2023-02-07T08:11:09.145Z,104347.16
2023-02-07T08:13:36.689Z,104359.63
2023-02-07T08:16:05.238Z,104370.41
2023-02-07T08:18:32.935Z,104386.06
2023-02-07T08:21:00.611Z,104351.75
2023-02-07T08:23:27.270Z,104353.94
2023-02-07T08:25:53.818Z,104374.41
2023-02-07T08:28:20.862Z,104369.25
2023-02-07T08:30:49.744Z,104376.22
2023-02-07T08:33:16.931Z,104384.94
2023-02-07T08:35:44.210Z,104380.19
2023-02-07T08:38:10.797Z,104374.31
2023-02-07T08:40:38.020Z,104363.63
2023-02-07T08:43:12.692Z,104377.91
2023-02-07T08:45:40.983Z,104373.75
2023-02-07T08:48:08.417Z,104379.13
2023-02-07T08:50:36.063Z,104371.09
2023-02-07T08:53:04.154Z,104358.13
2023-02-07T08:55:32.244Z,104372.34
2023-02-07T08:57:59.131Z,104380.16
2023-02-07T09:00:25.924Z,104382.03
2023-02-07T09:02:56.254Z,104376.94
2023-02-07T09:05:23.076Z,104376.22
2023-02-07T09:07:49.841Z,104372.84
2023-02-07T09:10:16.659Z,104361.59
2023-02-07T09:12:43.715Z,104375.00
2023-02-07T09:15:10.813Z,104372.38
2023-02-07T09:17:37.621Z,104383.06
2023-02-07T09:20:06.117Z,104389.22
2023-02-07T09:22:54.062Z,104391.00
2023-02-07T09:25:20.911Z,104376.19
2023-02-07T09:27:47.767Z,104384.28
2023-02-07T09:30:14.874Z,104370.09
2023-02-07T09:32:41.613Z,104379.38
2023-02-07T09:35:08.941Z,104384.66
2023-02-07T09:37:48.694Z,104376.22
2023-02-07T09:40:20.576Z,104376.44
2023-02-07T09:43:09.050Z,104379.09
2023-02-07T09:45:40.678Z,104360.88
2023-02-07T09:48:18.227Z,104367.13
2023-02-07T09:51:07.481Z,104360.34
2023-02-07T09:54:15.516Z,104364.19
2023-02-07T09:56:42.527Z,104371.63
2023-02-07T09:59:28.732Z,104358.56
2023-02-07T10:02:06.196Z,104361.31
2023-02-07T10:04:38.557Z,104379.03
2023-02-07T10:07:10.212Z,104372.31
2023-02-07T10:09:41.399Z,104369.72
2023-02-07T10:12:42.592Z,104368.97
2023-02-07T10:15:14.263Z,104366.78
2023-02-07T10:18:07.625Z,104367.75
2023-02-07T10:20:46.400Z,104354.88
2023-02-07T10:23:20.904Z,104366.44
2023-02-07T10:25:54.379Z,104373.72
2023-02-07T10:28:45.410Z,104361.34
2023-02-07T10:31:20.198Z,104376.09
2023-02-07T10:34:04.297Z,104390.59
2023-02-07T10:36:34.514Z,104391.44
2023-02-07T10:39:10.144Z,104395.25
2023-02-07T10:41:40.517Z,104398.78
2023-02-07T10:44:17.504Z,104399.09
2023-02-07T10:46:47.587Z,104392.94
2023-02-07T10:49:25.491Z,104401.94
2023-02-07T10:52:17.924Z,104401.06
2023-02-07T10:54:58.324Z,104395.75
2023-02-07T10:57:26.818Z,104397.00
2023-02-07T11:00:00.109Z,104395.16
2023-02-07T11:02:49.912Z,104397.06
2023-02-07T11:05:17.113Z,104394.44
2023-02-07T11:08:23.049Z,104392.63
2023-02-07T11:10:52.236Z,104389.16
2023-02-07T11:13:22.169Z,104382.41
2023-02-07T11:16:08.141Z,104381.81
2023-02-07T11:18:44.966Z,104375.16
2023-02-07T11:21:45.509Z,104375.53
2023-02-07T11:24:12.401Z,104363.34
2023-02-07T11:27:15.738Z,104370.50
2023-02-07T11:29:54.733Z,104364.72
2023-02-07T11:32:24.514Z,104359.59
2023-02-07T11:35:06.308Z,104354.34
2023-02-07T11:37:47.812Z,104365.78
2023-02-07T11:40:23.629Z,104362.25
2023-02-07T11:43:18.416Z,104353.81
2023-02-07T11:45:48.188Z,104353.69
2023-02-07T11:48:36.801Z,104346.00
2023-02-07T11:51:06.547Z,104346.00
2023-02-07T11:53:58.437Z,104339.06
2023-02-07T11:56:26.721Z,104330.25
2023-02-07T11:58:54.992Z,104326.84
2023-02-07T12:01:30.169Z,104334.94
2023-02-07T12:04:01.150Z,104332.44
2023-02-07T12:07:09.727Z,104333.41
2023-02-07T12:09:57.333Z,104332.72
2023-02-07T12:12:50.686Z,104331.81
2023-02-07T12:15:51.405Z,104331.88
2023-02-07T12:18:20.960Z,104339.75
2023-02-07T12:20:59.433Z,104328.34
2023-02-07T12:23:45.533Z,104331.88
2023-02-07T12:26:15.783Z,104334.66
2023-02-07T12:28:53.291Z,104331.34
2023-02-07T12:31:34.933Z,104338.22
2023-02-07T12:34:14.879Z,104338.28
2023-02-07T12:36:48.592Z,104334.03
2023-02-07T12:39:40.935Z,104322.66
2023-02-07T12:42:32.003Z,104328.91
2023-02-07T12:45:01.672Z,104337.91
2023-02-07T12:47:44.642Z,104326.25
2023-02-07T12:50:36.000Z,104329.91
2023-02-07T12:53:27.468Z,104324.53
2023-02-07T12:56:08.854Z,104321.09
2023-02-07T12:58:55.379Z,104317.38
2023-02-07T13:01:29.417Z,104317.41
2023-02-07T13:04:36.082Z,104312.34
2023-02-07T13:07:35.331Z,104316.69
2023-02-07T13:10:43.783Z,104310.91
2023-02-07T13:13:23.774Z,104304.63
2023-02-07T13:16:02.580Z,104289.56
2023-02-07T13:18:55.268Z,104296.16
2023-02-07T13:21:25.864Z,104297.97
2023-02-07T13:23:57.885Z,104282.06
2023-02-07T13:26:27.331Z,104292.53
2023-02-07T13:28:56.477Z,104297.78
2023-02-07T13:31:36.007Z,104287.06
2023-02-07T13:34:03.515Z,104295.69
2023-02-07T13:36:49.596Z,104283.34
2023-02-07T13:39:30.079Z,104285.03
2023-02-07T13:42:10.164Z,104287.88
2023-02-07T13:44:52.114Z,104286.19
2023-02-07T13:47:40.481Z,104283.63
2023-02-07T13:50:40.252Z,104284.72
2023-02-07T13:53:25.541Z,104279.38
2023-02-07T13:55:52.566Z,104273.34
2023-02-07T13:58:53.967Z,104281.41
2023-02-07T14:01:27.062Z,104261.38
2023-02-07T14:04:00.465Z,104277.19
2023-02-07T14:06:33.625Z,104278.84
2023-02-07T14:09:13.639Z,104288.53
2023-02-07T14:12:19.112Z,104279.59
2023-02-07T14:15:00.389Z,104280.50
2023-02-07T14:17:28.613Z,104277.03
2023-02-07T14:20:01.233Z,104283.16
2023-02-07T14:22:54.143Z,104276.97
2023-02-07T14:25:32.747Z,104276.97
2023-02-07T14:28:05.380Z,104282.06
2023-02-07T14:30:57.104Z,104276.81
2023-02-07T14:33:35.999Z,104278.66
2023-02-07T14:36:14.898Z,104282.22
2023-02-07T14:38:43.138Z,104282.13
2023-02-07T14:41:13.752Z,104279.34
2023-02-07T14:44:10.480Z,104271.41
2023-02-07T14:46:43.408Z,104276.59
2023-02-07T14:49:37.088Z,104275.00
2023-02-07T14:52:08.523Z,104251.25
2023-02-07T14:54:43.062Z,104273.41
2023-02-07T14:57:25.715Z,104269.19
2023-02-07T15:00:42.893Z,104271.09
2023-02-07T15:03:34.879Z,104272.50
2023-02-07T15:06:16.225Z,104268.88
2023-02-07T15:09:01.824Z,104235.53
2023-02-07T15:11:30.464Z,104253.16
2023-02-07T15:14:02.951Z,104268.84
2023-02-07T15:16:40.591Z,104265.22
2023-02-07T15:19:46.699Z,104257.19
2023-02-07T15:22:25.951Z,104265.94
2023-02-07T15:24:56.869Z,104259.84
2023-02-07T15:27:26.527Z,104256.34
2023-02-07T15:29:59.188Z,104259.75
2023-02-07T15:32:31.433Z,104253.63
2023-02-07T15:34:59.532Z,104258.03
2023-02-07T15:37:27.715Z,104245.69
2023-02-07T15:39:58.552Z,104240.28
2023-02-07T15:42:25.126Z,104260.63
2023-02-07T15:44:57.006Z,104268.41
2023-02-07T15:47:29.595Z,104270.16
2023-02-07T15:50:14.544Z,104267.50
2023-02-07T15:52:44.847Z,104264.97
2023-02-07T15:55:35.709Z,104259.63
2023-02-07T15:58:05.299Z,104272.94
2023-02-07T16:00:38.707Z,104264.09
2023-02-07T16:03:08.559Z,104264.13
2023-02-07T16:05:39.015Z,104258.69
2023-02-07T16:08:28.521Z,104262.84
2023-02-07T16:10:55.138Z,104266.38
2023-02-07T16:13:24.664Z,104268.03
2023-02-07T16:15:56.556Z,104267.00
2023-02-07T16:18:40.523Z,104274.69
2023-02-07T16:21:12.757Z,104260.47
2023-02-07T16:23:41.504Z,104266.56
2023-02-07T16:26:08.674Z,104258.66
2023-02-07T16:28:35.188Z,104253.31
2023-02-07T16:31:02.357Z,104269.91
2023-02-07T16:33:29.271Z,104258.47
2023-02-07T16:35:55.857Z,104275.06
2023-02-07T16:38:22.374Z,104262.50
2023-02-07T16:40:49.775Z,104266.59
2023-02-07T16:43:30.412Z,104273.34
2023-02-07T16:45:57.031Z,104279.38
2023-02-07T16:48:23.923Z,104280.09
2023-02-07T16:50:51.171Z,104283.34
2023-02-07T16:53:17.889Z,104284.84
2023-02-07T16:55:44.834Z,104288.34
2023-02-07T16:58:24.545Z,104289.09
2023-02-07T17:00:52.793Z,104294.13
2023-02-07T17:03:20.763Z,104291.31
2023-02-07T17:05:48.303Z,104269.91
2023-02-07T17:08:18.090Z,104271.69
2023-02-07T17:10:51.876Z,104269.72
2023-02-07T17:13:19.734Z,104280.94
2023-02-07T17:15:46.760Z,104290.63
2023-02-07T17:18:13.928Z,104290.44
2023-02-07T17:20:41.835Z,104287.59
2023-02-07T17:23:08.670Z,104294.56
2023-02-07T17:25:35.211Z,104285.75
2023-02-07T17:28:02.243Z,104281.25
2023-02-07T17:30:35.145Z,104284.53
2023-02-07T17:33:01.905Z,104298.34
2023-02-07T17:35:28.604Z,104254.00
2023-02-07T17:37:55.558Z,104280.28
2023-02-07T17:40:38.083Z,104298.75
2023-02-07T17:43:05.974Z,104286.22
2023-02-07T17:45:35.583Z,104286.09
2023-02-07T17:48:03.261Z,104295.53
2023-02-07T17:50:35.792Z,104298.97
2023-02-07T17:53:03.505Z,104300.59
2023-02-07T17:55:32.283Z,104304.03
2023-02-07T17:58:00.843Z,104309.97
2023-02-07T18:00:47.258Z,104296.66
2023-02-07T18:03:13.896Z,104294.81
2023-02-07T18:05:42.498Z,104294.81
2023-02-07T18:08:15.610Z,104299.84
2023-02-07T18:10:44.272Z,104314.72
2023-02-07T18:13:11.640Z,104316.19
2023-02-07T18:15:39.332Z,104309.94
2023-02-07T18:18:06.206Z,104284.13
2023-02-07T18:20:34.609Z,104312.59
2023-02-07T18:23:02.014Z,104307.25
2023-02-07T18:25:30.062Z,104296.38
2023-02-07T18:27:57.564Z,104313.09
2023-02-07T18:30:26.640Z,104296.38
2023-02-07T18:32:53.986Z,104302.53
2023-02-07T18:35:21.410Z,104266.03
2023-02-07T18:37:48.436Z,104285.47
2023-02-07T18:40:15.926Z,104271.00
2023-02-07T18:42:43.267Z,104300.28
2023-02-07T18:45:10.921Z,104274.63
2023-02-07T18:47:37.669Z,104296.03
2023-02-07T18:50:04.983Z,104291.47
2023-02-07T18:52:31.948Z,104290.59
2023-02-07T18:54:58.991Z,104298.44
2023-02-07T18:57:25.752Z,104282.50
2023-02-07T18:59:52.524Z,104294.81
2023-02-07T19:02:19.333Z,104276.31
2023-02-07T19:04:48.408Z,104293.81
2023-02-07T19:07:15.776Z,104286.63
2023-02-07T19:09:43.095Z,104298.09
2023-02-07T19:12:10.915Z,104296.28
2023-02-07T19:14:37.929Z,104298.94
2023-02-07T19:17:04.701Z,104301.53
2023-02-07T19:19:32.204Z,104301.66
2023-02-07T19:21:59.147Z,104290.13
2023-02-07T19:24:26.643Z,104307.94
2023-02-07T19:26:56.660Z,104306.06
2023-02-07T19:29:29.648Z,104301.53
2023-02-07T19:31:58.404Z,104300.50
2023-02-07T19:34:25.367Z,104313.78
2023-02-07T19:36:52.839Z,104315.25
2023-02-07T19:39:20.887Z,104300.94
2023-02-07T19:41:47.830Z,104305.34
2023-02-07T19:44:14.782Z,104313.84
2023-02-07T19:46:44.612Z,104317.28
2023-02-07T19:49:12.844Z,104303.88
2023-02-07T19:51:39.799Z,104310.94
2023-02-07T19:54:09.617Z,104305.41
2023-02-07T19:56:37.721Z,104320.31
2023-02-07T19:59:06.778Z,104331.66
2023-02-07T20:01:35.589Z,104326.34
2023-02-07T20:04:04.274Z,104323.63
2023-02-07T20:06:34.050Z,104326.19
2023-02-07T20:09:08.281Z,104309.38
2023-02-07T20:11:35.535Z,104318.06
2023-02-07T20:14:03.674Z,104323.22
2023-02-07T20:16:33.850Z,104322.22
2023-02-07T20:19:02.337Z,104315.06
2023-02-07T20:21:30.875Z,104321.28
2023-02-07T20:23:59.891Z,104323.84
2023-02-07T20:26:32.477Z,104316.91
2023-02-07T20:29:02.548Z,104290.19
2023-02-07T20:31:32.455Z,104275.03
2023-02-07T20:33:59.784Z,104314.91
2023-02-07T20:36:28.752Z,104311.16
2023-02-07T20:38:59.366Z,104292.38
2023-02-07T20:41:32.787Z,104307.31
2023-02-07T20:44:05.522Z,104314.28
2023-02-07T20:46:34.661Z,104296.63
2023-02-07T20:49:05.759Z,104312.47
2023-02-07T20:51:33.047Z,104309.75
2023-02-07T20:54:02.173Z,104308.75
2023-02-07T20:56:31.515Z,104307.75
2023-02-07T20:58:59.623Z,104291.97
2023-02-07T21:01:29.841Z,104309.53
2023-02-07T21:03:59.826Z,104299.53
2023-02-07T21:06:28.713Z,104303.53
2023-02-07T21:09:00.714Z,104290.66
2023-02-07T21:11:29.763Z,104305.75
2023-02-07T21:13:56.964Z,104301.19
2023-02-07T21:16:23.806Z,104293.19
2023-02-07T21:18:51.751Z,104302.91
2023-02-07T21:21:19.747Z,104294.91
2023-02-07T21:23:48.045Z,104275.28
2023-02-07T21:26:15.900Z,104299.09
2023-02-07T21:28:44.109Z,104288.41
2023-02-07T21:31:14.726Z,104292.78
2023-02-07T21:33:41.631Z,104288.28
2023-02-07T21:36:10.689Z,104288.34
2023-02-07T21:38:39.506Z,104295.38
2023-02-07T21:41:09.299Z,104290.13
2023-02-07T21:43:36.873Z,104286.59
2023-02-07T21:46:18.443Z,104284.91
2023-02-07T21:48:46.644Z,104278.44
2023-02-07T21:51:16.183Z,104286.41
2023-02-07T21:53:43.796Z,104275.00
2023-02-07T21:56:13.085Z,104281.13
2023-02-07T21:58:40.803Z,104261.47
2023-02-07T22:01:12.930Z,104285.34
2023-02-07T22:03:42.347Z,104282.75
2023-02-07T22:06:09.940Z,104288.81
2023-02-07T22:08:37.693Z,104280.63
2023-02-07T22:11:12.357Z,104292.06
2023-02-07T22:13:42.201Z,104285.63
2023-02-07T22:16:13.572Z,104288.34
2023-02-07T22:18:41.026Z,104289.25
2023-02-07T22:21:22.327Z,104287.34
2023-02-07T22:23:49.514Z,104270.44
2023-02-07T22:26:18.144Z,104266.91
2023-02-07T22:28:47.754Z,104276.06
2023-02-07T22:31:17.791Z,104258.22
2023-02-07T22:33:45.168Z,104271.50
2023-02-07T22:36:16.098Z,104269.91
2023-02-07T22:38:43.203Z,104252.13
2023-02-07T22:41:10.170Z,104246.69
2023-02-07T22:43:38.478Z,104259.22
2023-02-07T22:46:06.993Z,104258.63
2023-02-07T22:48:33.859Z,104257.75
2023-02-07T22:51:26.195Z,104213.38
2023-02-07T22:53:56.563Z,104256.78
2023-02-07T22:56:24.109Z,104246.28
2023-02-07T22:58:54.289Z,104261.34
2023-02-07T23:01:30.190Z,104259.69
2023-02-07T23:03:58.648Z,104248.53
2023-02-07T23:06:26.095Z,104259.44
2023-02-07T23:08:54.051Z,104246.28
2023-02-07T23:11:23.558Z,104247.97
2023-02-07T23:13:51.841Z,104261.28
2023-02-07T23:16:29.272Z,104241.19
2023-02-07T23:18:57.920Z,104263.00
2023-02-07T23:21:26.935Z,104267.19
2023-02-07T23:23:54.264Z,104248.09
2023-02-07T23:26:23.145Z,104258.50
2023-02-07T23:28:51.221Z,104264.09
2023-02-07T23:31:20.919Z,104272.63
2023-02-07T23:33:48.084Z,104257.63
2023-02-07T23:36:17.422Z,104269.78
2023-02-07T23:38:44.776Z,104266.13
2023-02-07T23:41:11.358Z,104265.97
2023-02-07T23:43:38.635Z,104257.03
2023-02-07T23:46:07.070Z,104274.75
2023-02-07T23:48:38.120Z,104254.38
2023-02-07T23:51:06.208Z,104265.84
2023-02-07T23:53:33.302Z,104253.31
2023-02-07T23:56:00.368Z,104272.56
2023-02-07T23:58:29.060Z,104261.22
